Aviation Digital Data Service (ADDS)

Output produced by TAFs form (2232 UTC 01 April 2015)
found at http://www.aviationweather.gov/adds/tafs/
 
KBJC 012153Z 26005KT 40SM SCT075 BKN120 OVC200 19/M06 A2974
KBJC 012202Z 0122/0218 28012G22KT P6SM VCSH SCT080 BKN120 
     TEMPO 0122/0124 VRB20G30KT BKN070 
     FM020300 01012G20KT P6SM SCT080 BKN120 
     FM020800 06010KT P6SM SCT015 OVC035 
     FM021300 07010KT 4SM -SN BR SCT008 OVC018 
     FM021700 06010KT 3SM -RASN SCT008 OVC016